Crystal Symphony — C6MY5 — position and weather

sailwx.info

Track history (hours):
 
Tides and Currents Weather Stations Pressure Air Temp Water Temp Dewpoint Dewpoint Depression Visibility Wind Speed Wind Dir Waves Ship Positions

Crystal Symphony

Operator: Crystal Cruises

Last reported at 2016-Aug-24 04:33 UTC. Time now 2016-Aug-24 04:51 UTC.
Position N 39°60' E 002°53'.

Length 238 m; draft 8 m.

Type: Ship. MMSI: 309168000.

Date/timePositionNaut miles runAvg speedWind from/ knotsBaromVisibWave heightAir tempDewpointWater temp
2016-Aug-24 04:33N 39°60' E 002°53'1817.9
2016-Aug-24 03:33N 39°52' E 002°32'2217.6
2016-Aug-24 02:17N 39°37' E 002°10'1417.9
2016-Aug-24 01:31N 39°24' E 002°03'1717.8
2016-Aug-24 00:33N 39°09' E 001°53'1717.6
2016-Aug-23 23:33N 38°55' E 001°39'8 0.4
2016-Aug-23 04:28N 38°50' E 001°32'35910.2
2016-Aug-21 17:14N 36°05' W 005°10'710.7
2016-Aug-21 16:34N 36°05' W 005°18'5 4.9
2016-Aug-21 15:33N 36°09' W 005°22'0 0.0
2016-Aug-21 14:33N 36°09' W 005°22'0 0.0
2016-Aug-21 13:32N 36°09' W 005°22'0 0.0
2016-Aug-21 12:32N 36°09' W 005°22'0 0.0
2016-Aug-21 11:31N 36°09' W 005°22'0 0.0
2016-Aug-21 10:31N 36°09' W 005°22'0 0.0
2016-Aug-21 09:33N 36°09' W 005°22'0 0.0
2016-Aug-21 08:33N 36°09' W 005°22'0 0.0
2016-Aug-21 07:33N 36°09' W 005°22'9 8.6
2016-Aug-21 06:34N 36°00' W 005°23'6516.2
2016-Aug-21 02:31N 35°21' W 006°28'1717.5
2016-Aug-21 01:33N 35°06' W 006°38'199 6.4
2016-Aug-19 18:20N 37°21' W 009°39'1620.1
2016-Aug-19 17:33N 37°37' W 009°37'2020.0
2016-Aug-19 16:33N 37°56' W 009°33'2020.0
2016-Aug-19 15:34N 38°16' W 009°29'2019.8
2016-Aug-19 14:34N 38°36' W 009°24'1110.5
2016-Aug-19 13:33N 38°41' W 009°13'5 4.6
2016-Aug-19 12:32N 38°43' W 009°07'0 0.0
2016-Aug-19 11:32N 38°43' W 009°07'0 0.0
2016-Aug-19 10:31N 38°43' W 009°07'0 0.0
2016-Aug-19 09:22N 38°43' W 009°07'0 0.0
2016-Aug-19 08:30N 38°43' W 009°07'0 0.0
2016-Aug-19 07:30N 38°43' W 009°07'0 0.0
2016-Aug-19 06:33N 38°43' W 009°07'0 0.0
2016-Aug-19 05:32N 38°43' W 009°07'0 0.0
2016-Aug-19 04:32N 38°43' W 009°07'0 0.0
2016-Aug-19 03:25N 38°43' W 009°07'0 0.0
2016-Aug-19 02:31N 38°43' W 009°07'0 0.0
2016-Aug-19 01:30N 38°43' W 009°07'0 0.0
2016-Aug-19 00:30N 38°43' W 009°07'0 0.0
2016-Aug-18 23:33N 38°43' W 009°07'0 0.0
2016-Aug-18 22:32N 38°43' W 009°07'0 0.0
2016-Aug-18 21:32N 38°43' W 009°07'0 0.0
2016-Aug-18 20:25N 38°43' W 009°07'0 0.0
2016-Aug-18 19:31N 38°43' W 009°07'0 0.0
2016-Aug-18 18:33N 38°43' W 009°07'0 0.0
2016-Aug-18 17:33N 38°43' W 009°07'0 0.0
2016-Aug-18 16:30N 38°43' W 009°07'0 0.0
2016-Aug-18 15:29N 38°43' W 009°07'0 0.0
2016-Aug-18 14:32N 38°43' W 009°07'0 0.0
2016-Aug-18 13:31N 38°43' W 009°07'0 0.0
2016-Aug-18 12:25N 38°43' W 009°07'0 0.0
2016-Aug-18 11:28N 38°43' W 009°07'0 0.0
2016-Aug-18 10:33N 38°43' W 009°07'0 0.0
2016-Aug-18 09:27N 38°43' W 009°07'0 0.0
2016-Aug-18 08:29N 38°43' W 009°07'0 0.0
2016-Aug-18 07:32N 38°43' W 009°07'0 0.0
2016-Aug-18 06:32N 38°43' W 009°07'0 0.0
2016-Aug-18 05:28N 38°43' W 009°07'0 0.0
2016-Aug-18 04:31N 38°43' W 009°07'0 0.0
2016-Aug-18 03:33N 38°43' W 009°07'0 0.0
2016-Aug-18 02:27N 38°43' W 009°07'0 0.0
2016-Aug-18 01:32N 38°43' W 009°07'0 0.0
2016-Aug-18 00:32N 38°43' W 009°07'0 0.0
2016-Aug-17 23:32N 38°43' W 009°07'0 0.0
2016-Aug-17 22:31N 38°43' W 009°07'0 0.0
2016-Aug-17 21:31N 38°43' W 009°07'0 0.0
2016-Aug-17 20:33N 38°43' W 009°07'0 0.0
2016-Aug-17 19:24N 38°43' W 009°07'0 0.0
2016-Aug-17 18:29N 38°43' W 009°07'0 0.0
2016-Aug-17 17:32N 38°43' W 009°07'0 0.0
2016-Aug-17 16:32N 38°43' W 009°07'0 0.0
2016-Aug-17 15:31N 38°43' W 009°07'0 0.0
2016-Aug-17 14:33N 38°43' W 009°07'0 0.0
2016-Aug-17 13:33N 38°43' W 009°07'0 0.0
2016-Aug-17 12:32N 38°43' W 009°07'0 0.0
2016-Aug-17 11:32N 38°43' W 009°07'0 0.0
2016-Aug-17 10:32N 38°43' W 009°07'0 0.0
2016-Aug-17 09:28N 38°43' W 009°07'0 0.0
2016-Aug-17 08:33N 38°43' W 009°07'6 6.1
2016-Aug-17 07:34N 38°41' W 009°15'1515.2
2016-Aug-17 06:33N 38°35' W 009°33'1818.3
2016-Aug-17 05:33N 38°35' W 009°56'1616.3
2016-Aug-17 04:33N 38°49' W 010°05'1919.3
2016-Aug-17 03:33N 39°09' W 010°06'2019.6
2016-Aug-17 02:33N 39°28' W 010°06'32513.9
2016-Aug-16 03:13N 43°56' W 005°59'1218.0
2016-Aug-16 02:33N 43°55' W 005°42'1717.4
2016-Aug-16 01:33N 43°53' W 005°18'12117.3
2016-Aug-15 18:33N 43°38' W 002°32'1817.7
2016-Aug-15 17:31N 43°34' W 002°07'1717.7
2016-Aug-15 16:32N 43°28' W 001°45'5 4.8
2016-Aug-15 15:33N 43°24' W 001°41'0 0.0
2016-Aug-15 14:26N 43°24' W 001°41'0 0.0
2016-Aug-15 13:32N 43°24' W 001°41'0 0.0
2016-Aug-15 12:28N 43°24' W 001°41'0 0.0
2016-Aug-15 11:31N 43°24' W 001°41'0 0.0
2016-Aug-15 10:31N 43°24' W 001°41'0 0.0
2016-Aug-15 09:33N 43°24' W 001°41'0 0.0
2016-Aug-15 08:33N 43°24' W 001°41'0 0.0
2016-Aug-15 07:29N 43°24' W 001°41'0 0.1
2016-Aug-15 06:32N 43°24' W 001°41'0 0.0
2016-Aug-15 04:31N 43°24' W 001°41'5 5.0
2016-Aug-15 03:33N 43°29' W 001°44'6314.8
2016-Aug-14 23:17N 44°31' W 001°53'1317.7
2016-Aug-14 22:33N 44°44' W 001°48'1717.4
2016-Aug-14 21:34N 45°00' W 001°41'  
Track history (hours):
 
Tides and Currents Weather Stations Pressure Air Temp Water Temp Dewpoint Dewpoint Depression Visibility Wind Speed Wind Dir Waves Ship Positions

Crystal Symphony

Operator: Crystal Cruises

Last reported at 2016-Aug-24 04:33 UTC. Time now 2016-Aug-24 04:51 UTC.
Position N 39°60' E 002°53'.

Length 238 m; draft 8 m.

Type: Ship. MMSI: 309168000.

Date/timePositionNaut miles runAvg speedWind from/ knotsBaromVisibWave heightAir tempDewpointWater temp
2016-Aug-24 04:33N 39°60' E 002°53'1817.9
2016-Aug-24 03:33N 39°52' E 002°32'2217.6
2016-Aug-24 02:17N 39°37' E 002°10'1417.9
2016-Aug-24 01:31N 39°24' E 002°03'1717.8
2016-Aug-24 00:33N 39°09' E 001°53'1717.6
2016-Aug-23 23:33N 38°55' E 001°39'8 0.4
2016-Aug-23 04:28N 38°50' E 001°32'35910.2
2016-Aug-21 17:14N 36°05' W 005°10'710.7
2016-Aug-21 16:34N 36°05' W 005°18'5 4.9
2016-Aug-21 15:33N 36°09' W 005°22'0 0.0
2016-Aug-21 14:33N 36°09' W 005°22'0 0.0
2016-Aug-21 13:32N 36°09' W 005°22'0 0.0
2016-Aug-21 12:32N 36°09' W 005°22'0 0.0
2016-Aug-21 11:31N 36°09' W 005°22'0 0.0
2016-Aug-21 10:31N 36°09' W 005°22'0 0.0
2016-Aug-21 09:33N 36°09' W 005°22'0 0.0
2016-Aug-21 08:33N 36°09' W 005°22'0 0.0
2016-Aug-21 07:33N 36°09' W 005°22'9 8.6
2016-Aug-21 06:34N 36°00' W 005°23'6516.2
2016-Aug-21 02:31N 35°21' W 006°28'1717.5
2016-Aug-21 01:33N 35°06' W 006°38'199 6.4
2016-Aug-19 18:20N 37°21' W 009°39'1620.1
2016-Aug-19 17:33N 37°37' W 009°37'2020.0
2016-Aug-19 16:33N 37°56' W 009°33'2020.0
2016-Aug-19 15:34N 38°16' W 009°29'2019.8
2016-Aug-19 14:34N 38°36' W 009°24'1110.5
2016-Aug-19 13:33N 38°41' W 009°13'5 4.6
2016-Aug-19 12:32N 38°43' W 009°07'0 0.0
2016-Aug-19 11:32N 38°43' W 009°07'0 0.0
2016-Aug-19 10:31N 38°43' W 009°07'0 0.0
2016-Aug-19 09:22N 38°43' W 009°07'0 0.0
2016-Aug-19 08:30N 38°43' W 009°07'0 0.0
2016-Aug-19 07:30N 38°43' W 009°07'0 0.0
2016-Aug-19 06:33N 38°43' W 009°07'0 0.0
2016-Aug-19 05:32N 38°43' W 009°07'0 0.0
2016-Aug-19 04:32N 38°43' W 009°07'0 0.0
2016-Aug-19 03:25N 38°43' W 009°07'0 0.0
2016-Aug-19 02:31N 38°43' W 009°07'0 0.0
2016-Aug-19 01:30N 38°43' W 009°07'0 0.0
2016-Aug-19 00:30N 38°43' W 009°07'0 0.0
2016-Aug-18 23:33N 38°43' W 009°07'0 0.0
2016-Aug-18 22:32N 38°43' W 009°07'0 0.0
2016-Aug-18 21:32N 38°43' W 009°07'0 0.0
2016-Aug-18 20:25N 38°43' W 009°07'0 0.0
2016-Aug-18 19:31N 38°43' W 009°07'0 0.0
2016-Aug-18 18:33N 38°43' W 009°07'0 0.0
2016-Aug-18 17:33N 38°43' W 009°07'0 0.0
2016-Aug-18 16:30N 38°43' W 009°07'0 0.0
2016-Aug-18 15:29N 38°43' W 009°07'0 0.0
2016-Aug-18 14:32N 38°43' W 009°07'0 0.0
2016-Aug-18 13:31N 38°43' W 009°07'0 0.0
2016-Aug-18 12:25N 38°43' W 009°07'0 0.0
2016-Aug-18 11:28N 38°43' W 009°07'0 0.0
2016-Aug-18 10:33N 38°43' W 009°07'0 0.0
2016-Aug-18 09:27N 38°43' W 009°07'0 0.0
2016-Aug-18 08:29N 38°43' W 009°07'0 0.0
2016-Aug-18 07:32N 38°43' W 009°07'0 0.0
2016-Aug-18 06:32N 38°43' W 009°07'0 0.0
2016-Aug-18 05:28N 38°43' W 009°07'0 0.0
2016-Aug-18 04:31N 38°43' W 009°07'0 0.0
2016-Aug-18 03:33N 38°43' W 009°07'0 0.0
2016-Aug-18 02:27N 38°43' W 009°07'0 0.0
2016-Aug-18 01:32N 38°43' W 009°07'0 0.0
2016-Aug-18 00:32N 38°43' W 009°07'0 0.0
2016-Aug-17 23:32N 38°43' W 009°07'0 0.0
2016-Aug-17 22:31N 38°43' W 009°07'0 0.0
2016-Aug-17 21:31N 38°43' W 009°07'0 0.0
2016-Aug-17 20:33N 38°43' W 009°07'0 0.0
2016-Aug-17 19:24N 38°43' W 009°07'0 0.0
2016-Aug-17 18:29N 38°43' W 009°07'0 0.0
2016-Aug-17 17:32N 38°43' W 009°07'0 0.0
2016-Aug-17 16:32N 38°43' W 009°07'0 0.0
2016-Aug-17 15:31N 38°43' W 009°07'0 0.0
2016-Aug-17 14:33N 38°43' W 009°07'0 0.0
2016-Aug-17 13:33N 38°43' W 009°07'0 0.0
2016-Aug-17 12:32N 38°43' W 009°07'0 0.0
2016-Aug-17 11:32N 38°43' W 009°07'0 0.0
2016-Aug-17 10:32N 38°43' W 009°07'0 0.0
2016-Aug-17 09:28N 38°43' W 009°07'0 0.0
2016-Aug-17 08:33N 38°43' W 009°07'6 6.1
2016-Aug-17 07:34N 38°41' W 009°15'1515.2
2016-Aug-17 06:33N 38°35' W 009°33'1818.3
2016-Aug-17 05:33N 38°35' W 009°56'1616.3
2016-Aug-17 04:33N 38°49' W 010°05'1919.3
2016-Aug-17 03:33N 39°09' W 010°06'2019.6
2016-Aug-17 02:33N 39°28' W 010°06'32513.9
2016-Aug-16 03:13N 43°56' W 005°59'1218.0
2016-Aug-16 02:33N 43°55' W 005°42'1717.4
2016-Aug-16 01:33N 43°53' W 005°18'12117.3
2016-Aug-15 18:33N 43°38' W 002°32'1817.7
2016-Aug-15 17:31N 43°34' W 002°07'1717.7
2016-Aug-15 16:32N 43°28' W 001°45'5 4.8
2016-Aug-15 15:33N 43°24' W 001°41'0 0.0
2016-Aug-15 14:26N 43°24' W 001°41'0 0.0
2016-Aug-15 13:32N 43°24' W 001°41'0 0.0
2016-Aug-15 12:28N 43°24' W 001°41'0 0.0
2016-Aug-15 11:31N 43°24' W 001°41'0 0.0
2016-Aug-15 10:31N 43°24' W 001°41'0 0.0
2016-Aug-15 09:33N 43°24' W 001°41'0 0.0
2016-Aug-15 08:33N 43°24' W 001°41'0 0.0
2016-Aug-15 07:29N 43°24' W 001°41'0 0.1
2016-Aug-15 06:32N 43°24' W 001°41'0 0.0
2016-Aug-15 04:31N 43°24' W 001°41'5 5.0
2016-Aug-15 03:33N 43°29' W 001°44'6314.8
2016-Aug-14 23:17N 44°31' W 001°53'1317.7
2016-Aug-14 22:33N 44°44' W 001°48'1717.4
2016-Aug-14 21:34N 45°00' W 001°41'  

Dump ship's entire track history